Douglass, Kansas
Current Conditions -  °F | °C
As of 1:58 PM on Thursday 30 Oct 2014 (Local Time) from KIAB Reporting Station
Clear Clear  
Wind Chill: 71°   Ceiling: Unl
Heat Index: 71°   Visibility: 10mi
Dew Point: 35°   Wind: 17mph
Humidity: 27%   Direction: 350°N
Pressure: 30.12"   Gusts: 26mph
Location:  37.52°N, 97.01°W
Report Text: KIAB 301858Z AUTO 35015G23KT 10SM CLR 22/02 A3012 RMK AO2 PK WND 36027/20 SLP197 T02160016
Loading
Personal Weather Stations






























Interactive Weather Map
Tropical Storm Tracking
New forecast layout! Learn more

10-Day Weather Forecast

Advertisements
Track Severe Weather on mobile